Time;durP1;ratioP1;P1;durP2;ratioP2;P2;SDS_P1;SDS_P2;PMS_P1;PMS_P2;Temp;Humidity;BMP_temperature;BMP_pressure;BME280_temperature;BME280_humidity;BME280_pressure;Samples;Min_cycle;Max_cycle;Signal;HPM_P1;HPM_P2
2022/11/12 00:02:36;;;;;;;22.52;10.73;;;;;;;9.86;100.00;102486.34;4992253;28;20397;-81
2022/11/12 00:05:22;;;;;;;18.92;11.05;;;;;;;9.80;100.00;102498.19;4994546;28;20421;-81
2022/11/12 00:08:08;;;;;;;18.80;10.15;;;;;;;9.76;100.00;102486.03;4994261;28;20065;-81
2022/11/12 00:10:55;;;;;;;20.30;11.13;;;;;;;9.79;100.00;102494.63;4994281;28;20050;-81
2022/11/12 00:13:41;;;;;;;18.08;11.18;;;;;;;9.84;100.00;102498.56;4993414;28;20051;-81
2022/11/12 00:16:27;;;;;;;21.30;11.52;;;;;;;9.78;100.00;102494.88;4994325;28;20372;-81
2022/11/12 00:19:14;;;;;;;12.43;8.85;;;;;;;9.65;100.00;102507.63;4994064;28;20059;-81
2022/11/12 00:22:00;;;;;;;16.35;10.43;;;;;;;9.58;100.00;102500.53;4992293;28;20047;-81
2022/11/12 00:24:47;;;;;;;18.80;9.40;;;;;;;9.55;100.00;102493.63;4994033;28;20398;-81
2022/11/12 00:27:34;;;;;;;16.45;10.52;;;;;;;9.57;100.00;102490.69;4993862;28;20496;-81
2022/11/12 00:30:21;;;;;;;16.67;9.73;;;;;;;9.50;100.00;102488.84;4994078;28;20038;-81
2022/11/12 00:33:08;;;;;;;18.52;9.98;;;;;;;9.48;100.00;102484.66;4993915;28;20493;-81
2022/11/12 00:35:59;;;;;;;17.58;10.35;;;;;;;9.49;100.00;102494.53;4993883;28;20046;-81
2022/11/12 00:38:46;;;;;;;16.88;9.82;;;;;;;9.40;100.00;102478.41;4993941;28;20042;-81
2022/11/12 00:41:32;;;;;;;16.60;9.90;;;;;;;9.45;100.00;102464.09;4984894;28;20041;-81
2022/11/12 00:44:18;;;;;;;14.35;9.77;;;;;;;9.43;100.00;102466.19;4974275;28;20402;-81
2022/11/12 00:47:05;;;;;;;16.50;9.05;;;;;;;9.41;100.00;102474.63;4973372;28;20047;-81
2022/11/12 00:49:52;;;;;;;14.25;8.35;;;;;;;9.39;100.00;102468.53;4974341;28;20430;-81
2022/11/12 00:52:38;;;;;;;14.00;8.80;;;;;;;9.41;100.00;102462.84;4974290;28;20380;-81
2022/11/12 00:55:25;;;;;;;14.23;8.13;;;;;;;9.52;100.00;102464.00;4980497;28;20050;-81
2022/11/12 00:58:11;;;;;;;15.23;9.20;;;;;;;9.46;100.00;102464.91;4993618;28;20039;-81
2022/11/12 01:01:03;;;;;;;18.85;9.45;;;;;;;9.58;100.00;102463.09;4993433;28;20392;-81
2022/11/12 01:03:49;;;;;;;16.88;9.63;;;;;;;9.58;100.00;102457.63;4993308;28;20050;-81
2022/11/12 01:06:39;;;;;;;16.85;9.73;;;;;;;9.53;100.00;102454.72;4993180;28;20049;-81
2022/11/12 01:09:26;;;;;;;16.90;9.80;;;;;;;9.56;100.00;102459.75;4993107;28;20393;-81
2022/11/12 01:12:12;;;;;;;14.82;9.00;;;;;;;9.57;100.00;102450.50;4993083;28;20050;-81
2022/11/12 01:14:59;;;;;;;13.70;8.40;;;;;;;9.48;100.00;102458.16;4993042;28;20046;-81
2022/11/12 01:17:45;;;;;;;13.82;8.63;;;;;;;9.43;100.00;102452.53;4993043;28;20042;-81
2022/11/12 01:20:31;;;;;;;12.27;8.85;;;;;;;9.43;100.00;102451.72;4992749;28;20461;-81
2022/11/12 01:23:18;;;;;;;16.60;9.43;;;;;;;9.43;100.00;102451.72;4992498;28;20053;-81
2022/11/12 01:26:09;;;;;;;14.82;8.25;;;;;;;9.44;100.00;102467.03;4992923;28;20053;-81
2022/11/12 01:28:56;;;;;;;12.85;8.18;;;;;;;9.38;100.00;102466.03;5007870;28;20485;-81
2022/11/12 01:31:43;;;;;;;15.48;8.00;;;;;;;9.49;100.00;102467.19;4992856;28;20053;-81
2022/11/12 01:34:29;;;;;;;13.55;7.78;;;;;;;9.41;100.00;102469.16;4994592;28;20081;-81
2022/11/12 01:37:15;;;;;;;14.65;8.05;;;;;;;9.47;100.00;102470.16;4996844;28;20042;-81
2022/11/12 01:40:02;;;;;;;12.38;8.30;;;;;;;9.44;100.00;102456.97;4996773;28;20046;-81
2022/11/12 01:42:52;;;;;;;14.85;7.75;;;;;;;9.47;100.00;102461.94;4996675;28;20042;-81
2022/11/12 01:45:44;;;;;;;12.00;7.45;;;;;;;9.43;100.00;102459.91;4996652;28;20046;-81
2022/11/12 01:48:36;;;;;;;16.58;8.05;;;;;;;9.47;100.00;102439.25;4996659;28;20050;-81
2022/11/12 01:51:30;;;;;;;13.00;7.22;;;;;;;9.37;100.00;102437.03;4996544;28;20065;-81
2022/11/12 01:54:20;;;;;;;12.63;7.18;;;;;;;9.39;100.00;102432.19;4996594;28;20054;-81
2022/11/12 01:57:09;;;;;;;10.20;7.25;;;;;;;9.31;100.00;102436.06;4996509;28;20049;-81
2022/11/12 02:00:01;;;;;;;12.15;8.00;;;;;;;9.34;100.00;102435.59;4996674;28;20069;-81
2022/11/12 02:02:54;;;;;;;13.15;8.13;;;;;;;9.34;100.00;102435.59;4996573;28;20405;-81
2022/11/12 02:05:41;;;;;;;12.38;7.90;;;;;;;9.21;100.00;102436.56;4996651;28;20065;-81
2022/11/12 02:08:29;;;;;;;12.20;7.40;;;;;;;9.20;100.00;102434.06;4996534;28;20042;-81
2022/11/12 02:11:18;;;;;;;12.57;7.93;;;;;;;9.17;100.00;102426.31;4996510;28;20058;-81
2022/11/12 02:14:05;;;;;;;10.75;7.32;;;;;;;9.17;100.00;102418.09;4996227;28;20054;-81
2022/11/12 02:16:52;;;;;;;12.40;7.78;;;;;;;9.10;100.00;102423.66;4996152;28;20051;-82
2022/11/12 02:19:39;;;;;;;10.88;7.18;;;;;;;9.06;100.00;102412.34;4995995;28;20042;-80
2022/11/12 02:22:25;;;;;;;11.77;7.55;;;;;;;9.09;100.00;102400.13;4995707;28;20058;-79
2022/11/12 02:25:16;;;;;;;15.18;7.80;;;;;;;9.02;100.00;102389.25;4995999;28;20524;-80
2022/11/12 02:28:05;;;;;;;12.15;7.47;;;;;;;9.08;100.00;102403.91;4995976;28;20394;-80
2022/11/12 02:30:52;;;;;;;11.48;7.15;;;;;;;9.04;100.00;102408.97;4995935;28;20050;-80
2022/11/12 02:33:39;;;;;;;12.38;6.60;;;;;;;8.96;100.00;102412.00;5010928;28;20068;-80
2022/11/12 02:36:26;;;;;;;12.30;7.18;;;;;;;8.99;100.00;102395.16;4995838;28;20482;-80
2022/11/12 02:39:12;;;;;;;9.45;6.45;;;;;;;8.87;100.00;102400.53;4995794;28;20050;-79
2022/11/12 02:41:58;;;;;;;12.27;6.63;;;;;;;8.90;100.00;102396.53;4995617;28;20053;-80
2022/11/12 02:44:45;;;;;;;9.63;6.53;;;;;;;8.97;100.00;102391.81;4995359;28;20046;-80
2022/11/12 02:47:31;;;;;;;10.55;6.90;;;;;;;8.92;100.00;102388.94;4995185;28;20042;-80
2022/11/12 02:50:18;;;;;;;10.23;6.40;;;;;;;8.88;100.00;102388.53;4995481;28;20062;-80
2022/11/12 02:53:04;;;;;;;12.18;6.60;;;;;;;8.88;100.00;102394.00;4995555;28;20562;-80
2022/11/12 02:55:51;;;;;;;11.73;6.35;;;;;;;8.87;100.00;102395.91;4995435;28;20050;-80
2022/11/12 02:58:37;;;;;;;12.65;7.13;;;;;;;8.78;100.00;102390.94;4995375;28;20038;-80
2022/11/12 03:01:23;;;;;;;9.70;6.50;;;;;;;8.77;100.00;102381.94;4995286;28;20409;-80
2022/11/12 03:04:10;;;;;;;10.95;5.85;;;;;;;8.78;100.00;102388.22;4995223;28;20050;-80
2022/11/12 03:06:56;;;;;;;10.98;6.57;;;;;;;8.83;100.00;102393.84;4995429;28;20049;-80
2022/11/12 03:09:42;;;;;;;12.48;6.85;;;;;;;8.64;100.00;102392.97;4995285;28;20054;-80
2022/11/12 03:12:30;;;;;;;9.60;6.43;;;;;;;8.63;100.00;102391.28;4995391;28;20046;-80
2022/11/12 03:15:19;;;;;;;9.73;6.03;;;;;;;8.79;100.00;102385.25;4995281;28;20047;-80
2022/11/12 03:18:05;;;;;;;10.07;6.45;;;;;;;8.78;100.00;102385.47;4995150;28;20046;-80
2022/11/12 03:20:52;;;;;;;9.07;6.43;;;;;;;8.84;100.00;102382.69;4995003;28;20073;-80
2022/11/12 03:23:38;;;;;;;8.82;5.68;;;;;;;8.89;100.00;102362.91;4995009;28;20057;-80
2022/11/12 03:26:25;;;;;;;10.70;6.20;;;;;;;8.85;100.00;102365.25;4994917;28;20042;-80
2022/11/12 03:29:13;;;;;;;8.57;6.57;;;;;;;8.90;100.00;102366.50;4994944;28;20038;-80
2022/11/12 03:31:59;;;;;;;12.85;6.50;;;;;;;8.91;100.00;102370.88;4994808;28;20042;-82
2022/11/12 03:34:46;;;;;;;8.23;5.97;;;;;;;9.06;100.00;102371.38;4993723;28;20038;-82
2022/11/12 03:37:37;;;;;;;10.98;6.90;;;;;;;9.00;100.00;102370.38;4994855;28;20049;-80
2022/11/12 03:40:24;;;;;;;10.80;6.65;;;;;;;9.01;100.00;102371.22;4994823;28;20053;-80
2022/11/12 03:43:10;;;;;;;10.82;7.05;;;;;;;9.00;100.00;102369.56;4994830;28;20042;-79
2022/11/12 03:45:59;;;;;;;10.10;6.70;;;;;;;9.20;100.00;102373.97;4994574;28;20045;-80
2022/11/12 03:48:45;;;;;;;10.30;6.40;;;;;;;9.11;100.00;102360.63;4994571;28;20552;-80
2022/11/12 03:51:31;;;;;;;11.90;7.28;;;;;;;9.27;100.00;102375.56;4994587;28;20047;-79
2022/11/12 03:54:19;;;;;;;9.65;6.47;;;;;;;9.18;100.00;102370.63;4994483;28;20046;-79
2022/11/12 03:57:05;;;;;;;9.18;6.07;;;;;;;9.15;100.00;102369.19;4994087;28;20507;-81
2022/11/12 03:59:51;;;;;;;9.45;6.72;;;;;;;9.17;100.00;102367.06;4994261;28;20053;-82
2022/11/12 04:02:38;;;;;;;9.35;6.03;;;;;;;8.99;100.00;102360.50;4994183;28;20050;-82
2022/11/12 04:08:36;;;;;;;9.10;6.05;;;;;;;8.96;100.00;102351.94;4994032;28;20140;-82
2022/11/12 04:11:23;;;;;;;8.25;5.75;;;;;;;8.87;100.00;102352.22;5009015;28;20051;-82
2022/11/12 04:14:09;;;;;;;11.35;6.40;;;;;;;8.97;100.00;102348.97;4993946;28;20049;-82
2022/11/12 04:23:05;;;;;;;;;;;;;;;9.06;100.00;102349.53;4994020;28;20508;-82
2022/11/12 04:32:02;;;;;;;8.43;6.32;;;;;;;8.90;100.00;102353.66;4993647;28;19928;-82
2022/11/12 04:34:48;;;;;;;13.10;7.03;;;;;;;8.83;100.00;102351.00;4992614;28;20046;-81
2022/11/12 04:37:45;;;;;;;11.23;5.90;;;;;;;8.77;100.00;102349.19;4993588;28;20035;-83
2022/11/12 04:46:41;;;;;;;;;;;;;;;8.76;100.00;102336.59;4993903;28;20046;-84
2022/11/12 04:49:27;;;;;;;14.60;6.60;;;;;;;8.68;100.00;102332.25;4993311;28;19937;-84
2022/11/12 04:52:14;;;;;;;10.85;6.00;;;;;;;8.78;100.00;102329.00;4993326;28;20049;-84
2022/11/12 04:55:00;;;;;;;7.85;5.90;;;;;;;8.76;100.00;102320.22;4993371;28;20046;-84
2022/11/12 04:57:47;;;;;;;13.60;6.55;;;;;;;8.76;100.00;102308.44;4993209;28;20489;-84
2022/11/12 05:00:33;;;;;;;10.48;6.22;;;;;;;8.74;100.00;102309.50;4993128;28;20034;-84
2022/11/12 05:03:20;;;;;;;8.55;5.97;;;;;;;8.78;100.00;102306.31;4993265;28;20046;-85
2022/11/12 05:09:11;;;;;;;;;;;;;;;8.79;100.00;102303.38;4992881;28;20042;-85
2022/11/12 05:11:57;;;;;;;8.85;5.90;;;;;;;8.87;100.00;102303.09;4993021;28;19932;-84
2022/11/12 05:14:44;;;;;;;10.13;6.00;;;;;;;8.86;100.00;102306.84;4993053;28;20054;-85
2022/11/12 05:17:30;;;;;;;8.63;5.88;;;;;;;8.74;100.00;102305.94;4993002;28;20034;-85
2022/11/12 05:20:17;;;;;;;7.53;5.97;;;;;;;8.70;100.00;102297.38;4992825;28;20046;-85
2022/11/12 05:23:03;;;;;;;10.18;6.22;;;;;;;8.65;100.00;102296.38;4992763;28;20391;-85
2022/11/12 05:25:52;;;;;;;10.60;6.65;;;;;;;8.63;100.00;102303.94;4992863;28;20046;-85
2022/11/12 05:28:38;;;;;;;13.45;7.30;;;;;;;8.78;100.00;102306.31;4992903;28;20053;-85
2022/11/12 05:31:25;;;;;;;10.70;6.78;;;;;;;8.88;100.00;102303.91;4992932;28;20042;-84
2022/11/12 05:34:12;;;;;;;11.35;7.10;;;;;;;8.72;100.00;102291.69;4992724;28;20038;-85
2022/11/12 05:37:03;;;;;;;14.20;6.78;;;;;;;8.73;100.00;102287.88;4992721;28;20065;-85
2022/11/12 05:39:50;;;;;;;11.93;6.53;;;;;;;8.67;100.00;102305.16;4992680;28;20053;-84
2022/11/12 05:42:36;;;;;;;12.32;6.55;;;;;;;8.63;100.00;102310.25;4992759;28;20050;-85
2022/11/12 05:45:23;;;;;;;14.40;6.85;;;;;;;8.64;100.00;102309.19;4992506;28;20038;-84
2022/11/12 05:48:09;;;;;;;9.10;6.25;;;;;;;8.72;100.00;102298.00;4992649;28;20047;-85
2022/11/12 05:50:56;;;;;;;12.32;6.50;;;;;;;8.65;100.00;102297.19;4992650;28;20046;-79
2022/11/12 05:53:58;;;;;;;12.10;6.90;;;;;;;8.80;100.00;102293.28;4989470;28;20068;-82
2022/11/12 05:56:45;;;;;;;10.73;5.90;;;;;;;8.86;100.00;102285.00;4990643;28;20057;-83
2022/11/12 05:59:32;;;;;;;9.80;6.07;;;;;;;8.90;100.00;102279.94;4992040;28;20391;-81
2022/11/12 06:02:18;;;;;;;13.27;7.22;;;;;;;8.96;100.00;102276.31;4981421;28;20071;-81
2022/11/12 06:05:05;;;;;;;10.32;6.50;;;;;;;8.96;100.00;102284.53;4975914;28;20375;-80
2022/11/12 06:07:51;;;;;;;9.10;5.72;;;;;;;8.98;100.00;102279.66;4972927;28;20049;-81
2022/11/12 06:10:37;;;;;;;10.65;7.40;;;;;;;8.97;100.00;102277.13;4977519;28;20394;-81
2022/11/12 06:13:24;;;;;;;12.32;7.35;;;;;;;9.03;100.00;102289.06;4990540;28;20490;-81
2022/11/12 06:16:11;;;;;;;8.60;6.40;;;;;;;9.04;100.00;102277.06;4992418;28;20053;-81
2022/11/12 06:18:58;;;;;;;12.10;6.88;;;;;;;9.00;100.00;102285.72;4974078;28;20042;-80
2022/11/12 06:21:44;;;;;;;10.98;7.05;;;;;;;9.05;100.00;102274.09;4981987;28;20050;-77
2022/11/12 06:24:31;;;;;;;11.20;7.15;;;;;;;9.20;100.00;102290.13;4991698;28;20043;-81
2022/11/12 06:27:22;;;;;;;9.30;6.53;;;;;;;9.20;100.00;102287.41;4995878;28;20054;-81
2022/11/12 06:30:09;;;;;;;11.95;7.13;;;;;;;9.33;100.00;102285.56;4982181;28;20039;-81
2022/11/12 06:32:56;;;;;;;10.20;6.78;;;;;;;9.40;100.00;102278.94;4986999;28;20047;-81
2022/11/12 06:35:42;;;;;;;9.55;7.28;;;;;;;9.46;100.00;102273.59;4977857;28;20039;-81
2022/11/12 06:38:32;;;;;;;14.23;7.68;;;;;;;9.47;100.00;102276.13;4986633;28;20053;-81
2022/11/12 06:41:19;;;;;;;9.98;7.53;;;;;;;9.44;99.44;102283.94;4991972;28;21589;-81
2022/11/12 06:44:05;;;;;;;12.98;7.13;;;;;;;9.48;99.53;102285.16;4987057;28;20042;-78
2022/11/12 06:46:51;;;;;;;10.93;7.07;;;;;;;9.48;99.70;102282.44;4990298;28;20370;-81
2022/11/12 06:49:38;;;;;;;15.50;8.45;;;;;;;9.52;99.11;102278.16;4994284;28;20042;-79
2022/11/12 06:52:24;;;;;;;15.57;8.10;;;;;;;9.49;98.96;102273.16;4995464;28;20038;-80
2022/11/12 06:55:11;;;;;;;11.70;6.97;;;;;;;9.45;98.50;102280.16;4995535;28;20050;-79
2022/11/12 06:57:57;;;;;;;13.13;6.78;;;;;;;9.39;99.21;102280.00;4983185;28;20038;-81
2022/11/12 07:00:44;;;;;;;14.32;6.53;;;;;;;9.43;98.54;102290.47;4986957;28;20046;-81
2022/11/12 07:03:30;;;;;;;10.15;6.90;;;;;;;9.63;98.23;102287.47;4994197;28;20043;-81
2022/11/12 07:06:19;;;;;;;9.93;6.85;;;;;;;9.63;97.91;102285.56;4994725;28;20049;-81
2022/11/12 07:09:05;;;;;;;17.60;7.75;;;;;;;9.71;97.17;102291.78;4995237;28;20046;-81
2022/11/12 07:11:51;;;;;;;10.40;6.68;;;;;;;9.80;97.01;102284.91;4995003;28;20042;-81
2022/11/12 07:14:38;;;;;;;8.82;6.38;;;;;;;9.88;97.21;102268.16;4991864;28;20039;-80
2022/11/12 07:17:24;;;;;;;10.40;6.53;;;;;;;9.87;97.39;102273.91;4979816;28;20050;-80
2022/11/12 07:20:11;;;;;;;12.60;7.70;;;;;;;9.88;98.08;102276.38;4975295;28;20038;-81
2022/11/12 07:23:01;;;;;;;10.68;5.65;;;;;;;9.96;96.42;102277.94;4975293;28;20406;-81
2022/11/12 07:25:55;;;;;;;8.20;6.18;;;;;;;10.16;97.23;102285.03;4993257;28;20065;-81
2022/11/12 07:28:42;;;;;;;13.18;6.57;;;;;;;10.16;96.94;102272.16;4978680;28;20034;-81
2022/11/12 07:31:28;;;;;;;9.60;6.45;;;;;;;10.33;97.05;102275.03;4988809;28;20060;-81
2022/11/12 07:34:15;;;;;;;10.48;6.90;;;;;;;10.44;96.23;102284.38;4992603;28;20397;-81
2022/11/12 07:37:01;;;;;;;17.02;6.97;;;;;;;10.44;97.32;102276.16;4983549;28;20049;-81
2022/11/12 07:39:47;;;;;;;11.05;7.55;;;;;;;10.54;96.85;102272.84;4993783;28;20501;-81
2022/11/12 07:42:34;;;;;;;13.95;7.30;;;;;;;10.80;94.92;102275.31;4988406;28;20042;-81
2022/11/12 07:45:22;;;;;;;11.27;6.35;;;;;;;10.80;95.77;102287.09;4984964;28;20133;-80
2022/11/12 07:48:08;;;;;;;11.13;7.75;;;;;;;10.87;95.33;102278.75;5008990;28;20413;-81
2022/11/12 07:51:28;;;;;;;13.45;8.05;;;;;;;10.62;95.43;102272.47;4986498;28;20058;-82
2022/11/12 07:54:14;;;;;;;12.07;8.10;;;;;;;10.66;95.78;102280.22;4992849;28;20057;-82
2022/11/12 07:57:01;;;;;;;11.35;8.32;;;;;;;10.50;96.19;102271.63;4992872;28;20057;-81
2022/11/12 07:59:47;;;;;;;13.32;8.82;;;;;;;10.61;97.21;102284.50;4992522;28;20042;-80
2022/11/12 08:02:34;;;;;;;13.52;8.27;;;;;;;10.72;97.01;102276.50;4993980;28;20042;-80
2022/11/12 08:05:20;;;;;;;13.55;8.65;;;;;;;10.81;98.33;102280.53;5005669;28;20045;-80
2022/11/12 08:08:07;;;;;;;17.90;9.65;;;;;;;10.79;98.96;102285.44;4991923;28;20431;-79
2022/11/12 08:10:57;;;;;;;19.58;11.43;;;;;;;11.10;98.09;102288.03;4986442;28;20042;-78
2022/11/12 08:13:44;;;;;;;20.02;10.65;;;;;;;11.11;97.98;102286.94;4991068;28;20302;-78
2022/11/12 08:16:31;;;;;;;18.67;11.27;;;;;;;11.34;96.07;102290.69;4977982;28;20474;-78
2022/11/12 08:19:18;;;;;;;20.30;10.98;;;;;;;11.40;95.44;102284.25;4988662;28;20050;-79
2022/11/12 08:22:04;;;;;;;19.73;10.40;;;;;;;11.35;93.46;102284.16;4974016;28;21426;-79
2022/11/12 08:24:51;;;;;;;19.75;10.27;;;;;;;11.49;94.32;102274.53;4989960;28;20045;-78
2022/11/12 08:27:40;;;;;;;18.30;10.55;;;;;;;11.59;93.81;102270.34;5001483;28;20053;-76
2022/11/12 08:30:29;;;;;;;19.67;11.25;;;;;;;11.56;95.20;102275.25;4989781;28;20042;-79
2022/11/12 09:03:54;;;;;;;21.80;11.65;;;;;;;12.40;92.67;102268.44;5058472;23;20069;-82
2022/11/12 09:06:41;;;;;;;18.30;11.32;;;;;;;12.33;90.52;102268.63;4957964;28;20054;-82
2022/11/12 09:09:27;;;;;;;17.65;11.05;;;;;;;12.31;91.37;102266.13;4941880;28;20047;-83
2022/11/12 09:12:18;;;;;;;18.70;11.70;;;;;;;12.29;92.08;102257.31;4964816;28;20039;-84
2022/11/12 09:15:05;;;;;;;16.75;11.65;;;;;;;12.63;92.21;102257.25;4949070;28;20046;-82
2022/11/12 09:18:16;;;;;;;19.05;11.98;;;;;;;12.72;92.31;102265.09;4945465;28;20049;-82
2022/11/12 09:21:06;;;;;;;19.60;12.38;;;;;;;12.89;91.66;102259.53;4946385;28;20073;-81
2022/11/12 09:23:52;;;;;;;16.95;10.82;;;;;;;13.02;90.71;102253.66;4969920;28;20416;-81
2022/11/12 09:26:39;;;;;;;18.38;10.73;;;;;;;13.07;88.98;102260.31;4988825;28;20062;-84
2022/11/12 09:29:25;;;;;;;17.70;11.18;;;;;;;13.19;90.75;102268.44;4985462;28;20377;-83
2022/11/12 09:32:12;;;;;;;21.38;10.80;;;;;;;13.27;90.35;102267.97;4941444;28;20043;-83
2022/11/12 09:34:59;;;;;;;14.70;10.52;;;;;;;13.52;89.60;102266.63;4955430;28;20050;-83
2022/11/12 09:37:45;;;;;;;20.92;11.93;;;;;;;13.28;90.00;102264.13;4942535;28;20069;-83
2022/11/12 09:40:50;;;;;;;15.75;10.13;;;;;;;13.18;89.72;102253.84;4955117;28;20055;-83
2022/11/12 09:43:50;;;;;;;20.08;11.25;;;;;;;13.34;90.80;102254.88;4958022;28;20059;-83
2022/11/12 09:46:49;;;;;;;15.65;11.00;;;;;;;13.60;88.34;102246.94;4958068;28;20047;-83
2022/11/12 09:50:04;;;;;;;17.02;10.80;;;;;;;14.02;87.37;102269.34;4942167;28;20050;-83
2022/11/12 09:52:59;;;;;;;17.02;10.77;;;;;;;13.73;89.47;102262.16;4949700;28;20047;-81
2022/11/12 09:55:49;;;;;;;18.95;11.10;;;;;;;13.69;88.37;102258.31;4943942;28;20047;-83
2022/11/12 09:58:38;;;;;;;15.38;11.07;;;;;;;13.32;90.11;102257.03;4946072;28;20062;-82
2022/11/12 10:01:31;;;;;;;17.25;10.93;;;;;;;13.73;87.52;102244.84;4961693;28;20055;-82
2022/11/12 10:04:55;;;;;;;19.52;11.82;;;;;;;13.75;87.41;102237.16;4964429;28;20050;-81
2022/11/12 10:07:43;;;;;;;19.38;11.35;;;;;;;13.86;84.81;102235.31;4967349;28;20381;-78
2022/11/12 10:11:14;;;;;;;17.60;11.48;;;;;;;14.03;85.61;102232.47;4976129;28;20051;-83
2022/11/12 10:14:16;;;;;;;18.50;10.85;;;;;;;14.39;83.63;102213.44;4894249;29;20071;-80
2022/11/12 10:17:06;;;;;;;18.23;10.48;;;;;;;14.36;83.90;102220.31;4896195;29;20056;-79
2022/11/12 10:20:16;;;;;;;19.13;10.50;;;;;;;14.45;81.90;102206.03;4954679;28;20047;-79
2022/11/12 10:23:19;;;;;;;15.75;10.57;;;;;;;14.36;82.31;102189.16;4969237;28;20498;-83
2022/11/12 10:26:14;;;;;;;18.05;10.55;;;;;;;14.37;83.63;102182.56;4959656;28;20054;-82
2022/11/12 10:29:10;;;;;;;16.85;10.00;;;;;;;14.68;80.92;102182.75;4993147;28;20046;-81
2022/11/12 10:31:59;;;;;;;19.23;10.40;;;;;;;15.02;82.29;102190.59;4976430;28;20046;-82
2022/11/12 10:34:45;;;;;;;19.80;11.45;;;;;;;15.14;79.89;102189.53;4974370;28;20042;-82
2022/11/12 10:37:50;;;;;;;15.65;9.77;;;;;;;14.96;78.57;102194.44;4993099;28;20046;-82
2022/11/12 10:40:41;;;;;;;14.60;10.90;;;;;;;14.64;79.50;102189.88;4986847;28;20617;-81
2022/11/12 10:43:28;;;;;;;17.30;10.50;;;;;;;15.08;79.82;102193.38;4988158;28;20046;-84
2022/11/12 10:46:21;;;;;;;16.80;10.30;;;;;;;15.42;77.32;102191.00;4974585;28;20771;-84
2022/11/12 10:49:15;;;;;;;16.30;10.57;;;;;;;14.97;78.42;102176.81;5338644;23;20055;-81
2022/11/12 10:52:03;;;;;;;11.98;9.10;;;;;;;15.00;79.31;102172.69;4970677;28;20663;-83
2022/11/12 10:55:13;;;;;;;18.13;10.70;;;;;;;14.99;79.03;102171.84;4942773;28;20050;-80
2022/11/12 10:58:21;;;;;;;15.52;10.23;;;;;;;15.24;77.53;102173.03;4956760;28;20050;-81
2022/11/12 11:01:16;;;;;;;16.33;10.07;;;;;;;15.31;76.75;102173.56;4971808;28;20047;-80
2022/11/12 11:04:28;;;;;;;11.88;8.88;;;;;;;15.58;77.37;102158.72;4959433;28;20061;-81
2022/11/12 11:07:23;;;;;;;18.77;11.15;;;;;;;15.56;77.29;102163.66;4942398;28;20051;-83
2022/11/12 11:10:34;;;;;;;20.33;10.95;;;;;;;15.53;77.26;102160.63;4957513;28;20492;-80
2022/11/12 11:13:27;;;;;;;19.88;11.95;;;;;;;15.62;76.50;102160.91;4956199;28;20043;-80
2022/11/12 11:16:21;;;;;;;16.63;10.48;;;;;;;15.84;76.63;102144.91;4943527;28;20055;-81
2022/11/12 11:19:11;;;;;;;17.20;10.13;;;;;;;16.04;76.13;102150.72;4960684;28;20059;-82
2022/11/12 11:22:23;;;;;;;16.10;9.48;;;;;;;16.02;73.45;102136.38;4957271;28;20047;-81
2022/11/12 11:25:59;;;;;;;12.95;10.05;;;;;;;16.05;73.88;102133.88;4964014;28;20413;-83
2022/11/12 11:29:08;;;;;;;20.15;11.52;;;;;;;15.78;75.58;102123.13;4944030;28;20054;-82
2022/11/12 11:32:18;;;;;;;17.38;9.57;;;;;;;15.99;73.84;102127.53;4941989;28;20050;-81
2022/11/12 11:35:26;;;;;;;13.85;9.80;;;;;;;16.15;73.24;102118.38;4959872;28;20051;-81
2022/11/12 11:38:37;;;;;;;15.90;10.70;;;;;;;16.12;73.88;102115.06;4944166;28;20050;-82
2022/11/12 11:41:52;;;;;;;18.23;10.40;;;;;;;16.31;73.87;102117.22;4942943;28;20057;-80
2022/11/12 11:45:08;;;;;;;19.13;11.20;;;;;;;16.42;74.25;102118.00;4943173;28;20438;-81
2022/11/12 11:48:17;;;;;;;17.58;9.48;;;;;;;16.41;72.86;102110.03;4945013;28;20046;-82
2022/11/12 11:51:09;;;;;;;13.23;9.25;;;;;;;16.47;73.12;102114.41;4943352;28;20046;-82
2022/11/12 11:54:23;;;;;;;16.33;9.57;;;;;;;16.17;73.43;102099.59;4943364;28;20520;-81
2022/11/12 11:57:20;;;;;;;17.63;10.50;;;;;;;16.23;74.63;102087.44;4939135;29;20715;-81
2022/11/12 12:00:22;;;;;;;19.92;10.60;;;;;;;16.51;72.34;102096.97;4937645;29;20058;-81
2022/11/12 12:03:21;;;;;;;18.20;9.63;;;;;;;16.27;72.95;102088.50;4924781;29;20392;-82
2022/11/12 12:06:22;;;;;;;15.65;10.35;;;;;;;16.25;72.91;102085.22;4937543;29;20384;-81
2022/11/12 12:09:18;;;;;;;16.63;10.45;;;;;;;16.12;77.23;102081.94;4937790;28;20047;-81
2022/11/12 12:12:26;;;;;;;16.08;10.27;;;;;;;15.94;77.93;102085.31;4960195;28;20051;-81
2022/11/12 12:15:45;;;;;;;21.48;11.65;;;;;;;16.27;77.97;102085.75;4941820;28;20413;-82
2022/11/12 12:18:50;;;;;;;18.38;12.10;;;;;;;16.18;78.48;102084.69;4925133;28;20498;-83
2022/11/12 12:21:47;;;;;;;18.63;11.85;;;;;;;16.05;78.56;102067.59;4958153;28;20482;-83
2022/11/12 12:24:47;;;;;;;24.27;11.80;;;;;;;16.21;79.27;102073.06;4949231;28;20046;-82
2022/11/12 12:27:46;;;;;;;21.15;12.20;;;;;;;15.97;78.95;102070.94;4949920;28;20051;-82
2022/11/12 12:30:54;;;;;;;24.17;12.63;;;;;;;15.82;81.02;102083.63;4950616;28;20051;-82
2022/11/12 12:34:20;;;;;;;23.90;12.93;;;;;;;15.72;81.84;102083.66;4971096;28;20054;-80
2022/11/12 12:37:35;;;;;;;23.75;13.02;;;;;;;15.56;81.25;102075.38;4914720;29;20051;-81
2022/11/12 12:40:28;;;;;;;;;;;;;;;15.38;82.69;102073.19;4912303;29;20096;-82
2022/11/12 12:43:40;;;;;;;18.50;12.60;;;;;;;15.74;82.28;102072.34;4930991;28;19922;-84
2022/11/12 12:47:06;;;;;;;23.13;11.60;;;;;;;16.07;79.53;102059.84;4981694;28;20043;-84
2022/11/12 12:50:14;;;;;;;19.02;12.15;;;;;;;15.93;79.57;102067.09;4952123;29;20047;-81
2022/11/12 12:53:02;;;;;;;23.88;12.88;;;;;;;15.76;80.52;102068.19;4952859;28;20058;-82
2022/11/12 12:55:50;;;;;;;21.63;12.75;;;;;;;15.40;81.64;102071.00;4939040;29;20398;-81
2022/11/12 12:58:51;;;;;;;19.70;12.27;;;;;;;15.22;82.81;102058.56;4941047;29;20058;-81
2022/11/12 13:01:39;;;;;;;25.70;14.50;;;;;;;15.23;84.12;102062.97;4939822;29;20051;-82
2022/11/12 13:04:50;;;;;;;22.55;13.20;;;;;;;14.85;84.52;102060.44;4938736;29;20051;-82
2022/11/12 13:07:46;;;;;;;20.77;12.38;;;;;;;14.97;84.25;102062.97;4939548;29;20055;-82
2022/11/12 13:10:48;;;;;;;17.38;12.48;;;;;;;15.08;84.36;102067.41;4952935;29;20062;-82
2022/11/12 13:13:38;;;;;;;16.02;11.15;;;;;;;15.01;84.06;102072.34;4948930;29;20056;-83
2022/11/12 13:16:50;;;;;;;18.63;12.00;;;;;;;15.27;84.92;102073.19;4932981;29;20048;-81
2022/11/12 13:19:38;;;;;;;25.27;14.43;;;;;;;15.29;84.81;102072.91;4920625;29;20055;-82
2022/11/12 13:22:37;;;;;;;19.60;12.63;;;;;;;14.88;87.19;102069.03;4951540;29;20047;-83
2022/11/12 13:25:32;;;;;;;17.58;12.48;;;;;;;14.57;88.01;102059.81;4948179;29;20406;-83
2022/11/12 13:28:21;;;;;;;17.60;11.45;;;;;;;14.61;89.07;102064.50;4968424;28;20058;-84
2022/11/12 13:31:26;;;;;;;18.10;12.18;;;;;;;14.32;90.89;102053.94;4952403;28;20059;-81
2022/11/12 13:34:20;;;;;;;21.02;12.73;;;;;;;14.62;89.88;102051.56;4941795;29;20522;-81
2022/11/12 13:37:18;;;;;;;14.63;10.63;;;;;;;14.46;91.48;102065.28;4969535;28;20402;-82
2022/11/12 13:40:13;;;;;;;17.30;12.00;;;;;;;14.72;90.28;102073.63;4944056;29;20046;-80
2022/11/12 13:43:08;;;;;;;19.95;13.35;;;;;;;14.52;91.69;102057.88;4934539;29;20067;-79
2022/11/12 13:46:24;;;;;;;20.58;12.55;;;;;;;14.63;91.92;102050.47;4953201;28;20058;-80
2022/11/12 13:49:14;;;;;;;21.95;14.90;;;;;;;14.45;91.26;102057.28;4922274;28;20431;-80
2022/11/12 13:52:04;;;;;;;21.95;14.45;;;;;;;14.44;91.88;102050.13;4954941;28;20486;-79
2022/11/12 13:55:12;;;;;;;23.52;15.20;;;;;;;14.52;91.11;102044.94;4950473;28;20498;-80
2022/11/12 13:58:00;;;;;;;23.67;15.30;;;;;;;14.48;91.22;102043.81;4957582;28;20055;-79
2022/11/12 14:00:53;;;;;;;18.92;13.30;;;;;;;14.73;90.89;102042.25;4952283;28;20116;-79
2022/11/12 14:03:47;;;;;;;21.63;13.85;;;;;;;14.80;89.99;102035.66;4951082;29;20047;-79
2022/11/12 14:06:45;;;;;;;21.55;14.60;;;;;;;14.80;89.28;102032.91;4966570;28;20046;-80